Gulkana, Alaska
Current Conditions -  °F | °C
As of 9:53 AM on Thursday 18 Dec 2014 (Local Time) from PAGK Reporting Station
Clear Clear  
Wind Chill: -15°   Ceiling: Unl
Heat Index: -15°   Visibility: 10mi
Dew Point: -21°   Wind: 3mph
Humidity: 75%   Direction: 330°NNW
Pressure: 29.63"   Gusts: NA
Location:  62.25°N, 145.42°W
Report Text: PAGK 181853Z AUTO 33003KT 10SM CLR M26/M29 A2963 RMK AO2 SLP104 T12611294 TSNO
Loading
Personal Weather Stations






























Interactive Weather Map New forecast layout! Learn more

10-Day Weather Forecast

Advertisements
Track Severe Weather on mobile